sensor_id;sensor_type;location;lat;lon;timestamp;P1;durP1;ratioP1;P2;durP2;ratioP2
42332;SDS011;27984;51.476;5.702;2023-06-22T00:01:49;10.70;;;6.50;;
42332;SDS011;27984;51.476;5.702;2023-06-22T00:04:15;7.35;;;6.10;;
42332;SDS011;27984;51.476;5.702;2023-06-22T00:06:41;9.50;;;6.45;;
42332;SDS011;27984;51.476;5.702;2023-06-22T00:09:07;8.57;;;6.18;;
42332;SDS011;27984;51.476;5.702;2023-06-22T00:11:35;8.85;;;5.90;;
42332;SDS011;27984;51.476;5.702;2023-06-22T00:14:01;10.23;;;6.43;;
42332;SDS011;27984;51.476;5.702;2023-06-22T00:16:27;9.20;;;6.30;;
42332;SDS011;27984;51.476;5.702;2023-06-22T00:18:53;8.68;;;6.18;;
42332;SDS011;27984;51.476;5.702;2023-06-22T00:21:19;8.65;;;6.47;;
42332;SDS011;27984;51.476;5.702;2023-06-22T00:23:45;9.25;;;6.00;;
42332;SDS011;27984;51.476;5.702;2023-06-22T00:26:12;9.48;;;7.03;;
42332;SDS011;27984;51.476;5.702;2023-06-22T00:28:38;9.70;;;6.60;;
42332;SDS011;27984;51.476;5.702;2023-06-22T00:31:04;9.25;;;6.47;;
42332;SDS011;27984;51.476;5.702;2023-06-22T00:33:30;8.93;;;6.50;;
42332;SDS011;27984;51.476;5.702;2023-06-22T00:35:56;9.38;;;6.68;;
42332;SDS011;27984;51.476;5.702;2023-06-22T00:38:22;9.05;;;6.93;;
42332;SDS011;27984;51.476;5.702;2023-06-22T00:40:48;10.45;;;7.00;;
42332;SDS011;27984;51.476;5.702;2023-06-22T00:43:14;12.38;;;7.13;;
42332;SDS011;27984;51.476;5.702;2023-06-22T00:45:40;9.55;;;7.28;;
42332;SDS011;27984;51.476;5.702;2023-06-22T00:48:06;8.27;;;7.07;;
42332;SDS011;27984;51.476;5.702;2023-06-22T00:50:33;12.93;;;8.02;;
42332;SDS011;27984;51.476;5.702;2023-06-22T00:53:00;9.15;;;7.32;;
42332;SDS011;27984;51.476;5.702;2023-06-22T00:55:27;9.02;;;7.78;;
42332;SDS011;27984;51.476;5.702;2023-06-22T00:57:53;10.50;;;7.72;;
42332;SDS011;27984;51.476;5.702;2023-06-22T01:00:20;10.35;;;7.70;;
42332;SDS011;27984;51.476;5.702;2023-06-22T01:02:49;13.52;;;8.52;;
42332;SDS011;27984;51.476;5.702;2023-06-22T01:05:17;10.88;;;8.45;;
42332;SDS011;27984;51.476;5.702;2023-06-22T01:10:38;15.48;;;8.95;;
42332;SDS011;27984;51.476;5.702;2023-06-22T01:13:07;12.38;;;9.05;;
42332;SDS011;27984;51.476;5.702;2023-06-22T01:15:41;12.27;;;9.20;;
42332;SDS011;27984;51.476;5.702;2023-06-22T01:18:08;10.75;;;8.90;;
42332;SDS011;27984;51.476;5.702;2023-06-22T01:20:35;11.88;;;9.10;;
42332;SDS011;27984;51.476;5.702;2023-06-22T01:23:21;12.48;;;9.65;;
42332;SDS011;27984;51.476;5.702;2023-06-22T01:25:54;11.98;;;9.50;;
42332;SDS011;27984;51.476;5.702;2023-06-22T01:31:07;14.43;;;9.93;;
42332;SDS011;27984;51.476;5.702;2023-06-22T01:33:34;12.50;;;9.95;;
42332;SDS011;27984;51.476;5.702;2023-06-22T01:36:01;14.88;;;10.32;;
42332;SDS011;27984;51.476;5.702;2023-06-22T01:38:28;13.57;;;9.95;;
42332;SDS011;27984;51.476;5.702;2023-06-22T01:40:54;14.82;;;10.68;;
42332;SDS011;27984;51.476;5.702;2023-06-22T01:43:21;13.45;;;10.50;;
42332;SDS011;27984;51.476;5.702;2023-06-22T01:45:50;13.02;;;10.35;;
42332;SDS011;27984;51.476;5.702;2023-06-22T01:48:17;14.77;;;10.40;;
42332;SDS011;27984;51.476;5.702;2023-06-22T01:50:43;12.45;;;9.93;;
42332;SDS011;27984;51.476;5.702;2023-06-22T01:53:09;12.43;;;10.70;;
42332;SDS011;27984;51.476;5.702;2023-06-22T01:55:35;14.13;;;10.90;;
42332;SDS011;27984;51.476;5.702;2023-06-22T01:58:01;14.00;;;9.95;;
42332;SDS011;27984;51.476;5.702;2023-06-22T02:00:28;14.35;;;10.00;;
42332;SDS011;27984;51.476;5.702;2023-06-22T02:03:02;16.05;;;11.15;;
42332;SDS011;27984;51.476;5.702;2023-06-22T02:05:34;14.63;;;10.73;;
42332;SDS011;27984;51.476;5.702;2023-06-22T02:10:33;14.35;;;11.00;;
42332;SDS011;27984;51.476;5.702;2023-06-22T02:13:00;16.17;;;10.80;;
42332;SDS011;27984;51.476;5.702;2023-06-22T02:15:26;16.52;;;11.10;;
42332;SDS011;27984;51.476;5.702;2023-06-22T02:17:52;17.00;;;10.50;;
42332;SDS011;27984;51.476;5.702;2023-06-22T02:20:19;15.75;;;11.13;;
42332;SDS011;27984;51.476;5.702;2023-06-22T02:22:45;14.88;;;10.77;;
42332;SDS011;27984;51.476;5.702;2023-06-22T02:25:12;12.68;;;10.63;;
42332;SDS011;27984;51.476;5.702;2023-06-22T02:27:38;15.57;;;11.57;;
42332;SDS011;27984;51.476;5.702;2023-06-22T02:30:06;16.15;;;10.95;;
42332;SDS011;27984;51.476;5.702;2023-06-22T02:32:32;14.35;;;11.07;;
42332;SDS011;27984;51.476;5.702;2023-06-22T02:34:59;17.55;;;11.43;;
42332;SDS011;27984;51.476;5.702;2023-06-22T02:37:28;16.90;;;13.27;;
42332;SDS011;27984;51.476;5.702;2023-06-22T02:39:54;15.82;;;11.75;;
42332;SDS011;27984;51.476;5.702;2023-06-22T02:42:20;14.77;;;11.30;;
42332;SDS011;27984;51.476;5.702;2023-06-22T02:44:46;13.57;;;10.80;;
42332;SDS011;27984;51.476;5.702;2023-06-22T02:47:12;16.35;;;11.15;;
42332;SDS011;27984;51.476;5.702;2023-06-22T02:49:38;13.20;;;11.35;;
42332;SDS011;27984;51.476;5.702;2023-06-22T02:52:04;16.77;;;11.55;;
42332;SDS011;27984;51.476;5.702;2023-06-22T02:54:30;16.60;;;11.45;;
42332;SDS011;27984;51.476;5.702;2023-06-22T02:56:58;17.08;;;11.13;;
42332;SDS011;27984;51.476;5.702;2023-06-22T02:59:27;16.00;;;11.00;;
42332;SDS011;27984;51.476;5.702;2023-06-22T03:01:53;13.55;;;11.52;;
42332;SDS011;27984;51.476;5.702;2023-06-22T03:04:19;16.98;;;12.00;;
42332;SDS011;27984;51.476;5.702;2023-06-22T03:06:45;15.63;;;12.15;;
42332;SDS011;27984;51.476;5.702;2023-06-22T03:09:15;15.73;;;11.95;;
42332;SDS011;27984;51.476;5.702;2023-06-22T03:11:41;14.27;;;11.15;;
42332;SDS011;27984;51.476;5.702;2023-06-22T03:14:07;17.10;;;11.63;;
42332;SDS011;27984;51.476;5.702;2023-06-22T03:16:33;14.85;;;11.32;;
42332;SDS011;27984;51.476;5.702;2023-06-22T03:18:59;16.75;;;11.45;;
42332;SDS011;27984;51.476;5.702;2023-06-22T03:21:28;14.85;;;11.77;;
42332;SDS011;27984;51.476;5.702;2023-06-22T03:23:54;14.90;;;11.85;;
42332;SDS011;27984;51.476;5.702;2023-06-22T03:26:20;17.98;;;11.88;;
42332;SDS011;27984;51.476;5.702;2023-06-22T03:28:47;13.60;;;11.30;;
42332;SDS011;27984;51.476;5.702;2023-06-22T03:31:13;16.25;;;11.30;;
42332;SDS011;27984;51.476;5.702;2023-06-22T03:33:39;16.30;;;11.13;;
42332;SDS011;27984;51.476;5.702;2023-06-22T03:36:05;17.08;;;12.40;;
42332;SDS011;27984;51.476;5.702;2023-06-22T03:38:32;12.90;;;10.93;;
42332;SDS011;27984;51.476;5.702;2023-06-22T03:40:57;15.25;;;11.82;;
42332;SDS011;27984;51.476;5.702;2023-06-22T03:43:23;16.33;;;11.30;;
42332;SDS011;27984;51.476;5.702;2023-06-22T03:45:49;15.75;;;11.48;;
42332;SDS011;27984;51.476;5.702;2023-06-22T03:48:15;15.65;;;11.23;;
42332;SDS011;27984;51.476;5.702;2023-06-22T03:50:41;16.23;;;11.85;;
42332;SDS011;27984;51.476;5.702;2023-06-22T03:53:08;15.48;;;11.95;;
42332;SDS011;27984;51.476;5.702;2023-06-22T03:55:35;13.00;;;10.85;;
42332;SDS011;27984;51.476;5.702;2023-06-22T03:58:01;16.77;;;12.32;;
42332;SDS011;27984;51.476;5.702;2023-06-22T04:00:30;13.77;;;11.30;;
42332;SDS011;27984;51.476;5.702;2023-06-22T04:02:56;15.63;;;11.57;;
42332;SDS011;27984;51.476;5.702;2023-06-22T04:05:22;15.55;;;11.98;;
42332;SDS011;27984;51.476;5.702;2023-06-22T04:07:49;16.35;;;11.43;;
42332;SDS011;27984;51.476;5.702;2023-06-22T04:10:15;14.27;;;11.07;;
42332;SDS011;27984;51.476;5.702;2023-06-22T04:12:41;16.83;;;11.25;;
42332;SDS011;27984;51.476;5.702;2023-06-22T04:15:07;15.80;;;11.32;;
42332;SDS011;27984;51.476;5.702;2023-06-22T04:17:33;14.90;;;11.05;;
42332;SDS011;27984;51.476;5.702;2023-06-22T04:19:59;16.02;;;11.93;;
42332;SDS011;27984;51.476;5.702;2023-06-22T04:22:25;14.48;;;11.00;;
42332;SDS011;27984;51.476;5.702;2023-06-22T04:24:51;13.50;;;10.88;;
42332;SDS011;27984;51.476;5.702;2023-06-22T04:27:17;13.65;;;10.90;;
42332;SDS011;27984;51.476;5.702;2023-06-22T04:29:44;14.52;;;11.50;;
42332;SDS011;27984;51.476;5.702;2023-06-22T04:32:13;17.90;;;11.45;;
42332;SDS011;27984;51.476;5.702;2023-06-22T04:34:39;17.15;;;11.43;;
42332;SDS011;27984;51.476;5.702;2023-06-22T04:37:05;15.43;;;11.02;;
42332;SDS011;27984;51.476;5.702;2023-06-22T04:39:31;14.13;;;11.52;;
42332;SDS011;27984;51.476;5.702;2023-06-22T04:41:57;15.57;;;11.55;;
42332;SDS011;27984;51.476;5.702;2023-06-22T04:44:25;14.93;;;12.27;;
42332;SDS011;27984;51.476;5.702;2023-06-22T04:46:52;14.48;;;12.18;;
42332;SDS011;27984;51.476;5.702;2023-06-22T04:49:33;15.77;;;11.43;;
42332;SDS011;27984;51.476;5.702;2023-06-22T04:52:03;13.85;;;12.13;;
42332;SDS011;27984;51.476;5.702;2023-06-22T04:54:30;17.42;;;12.75;;
42332;SDS011;27984;51.476;5.702;2023-06-22T04:57:02;17.95;;;12.48;;
42332;SDS011;27984;51.476;5.702;2023-06-22T04:59:29;15.48;;;12.30;;
42332;SDS011;27984;51.476;5.702;2023-06-22T05:01:55;17.00;;;12.77;;
42332;SDS011;27984;51.476;5.702;2023-06-22T05:04:22;16.73;;;12.60;;
42332;SDS011;27984;51.476;5.702;2023-06-22T05:06:48;17.27;;;12.57;;
42332;SDS011;27984;51.476;5.702;2023-06-22T05:09:14;18.58;;;13.80;;
42332;SDS011;27984;51.476;5.702;2023-06-22T05:11:42;16.13;;;12.95;;
42332;SDS011;27984;51.476;5.702;2023-06-22T05:14:08;16.77;;;13.82;;
42332;SDS011;27984;51.476;5.702;2023-06-22T05:16:34;16.75;;;14.13;;
42332;SDS011;27984;51.476;5.702;2023-06-22T05:19:00;18.67;;;14.23;;
42332;SDS011;27984;51.476;5.702;2023-06-22T05:21:28;17.38;;;14.15;;
42332;SDS011;27984;51.476;5.702;2023-06-22T05:23:55;18.00;;;14.32;;
42332;SDS011;27984;51.476;5.702;2023-06-22T05:26:24;17.30;;;14.07;;
42332;SDS011;27984;51.476;5.702;2023-06-22T05:28:50;18.40;;;14.35;;
42332;SDS011;27984;51.476;5.702;2023-06-22T05:31:16;20.50;;;14.52;;
42332;SDS011;27984;51.476;5.702;2023-06-22T05:33:44;19.73;;;15.02;;
42332;SDS011;27984;51.476;5.702;2023-06-22T05:36:11;20.13;;;14.82;;
42332;SDS011;27984;51.476;5.702;2023-06-22T05:38:37;22.23;;;15.77;;
42332;SDS011;27984;51.476;5.702;2023-06-22T05:41:03;17.05;;;15.13;;
42332;SDS011;27984;51.476;5.702;2023-06-22T05:43:29;21.40;;;15.25;;
42332;SDS011;27984;51.476;5.702;2023-06-22T05:45:56;19.10;;;16.05;;
42332;SDS011;27984;51.476;5.702;2023-06-22T05:48:22;21.20;;;16.33;;
42332;SDS011;27984;51.476;5.702;2023-06-22T05:50:48;21.02;;;15.88;;
42332;SDS011;27984;51.476;5.702;2023-06-22T05:53:14;19.63;;;15.88;;
42332;SDS011;27984;51.476;5.702;2023-06-22T05:55:40;19.90;;;16.23;;
42332;SDS011;27984;51.476;5.702;2023-06-22T05:58:07;19.63;;;15.82;;
42332;SDS011;27984;51.476;5.702;2023-06-22T06:00:33;21.30;;;16.25;;
42332;SDS011;27984;51.476;5.702;2023-06-22T06:02:59;19.80;;;15.25;;
42332;SDS011;27984;51.476;5.702;2023-06-22T06:05:29;20.38;;;16.15;;
42332;SDS011;27984;51.476;5.702;2023-06-22T06:07:55;21.17;;;16.50;;
42332;SDS011;27984;51.476;5.702;2023-06-22T06:10:21;19.35;;;15.95;;
42332;SDS011;27984;51.476;5.702;2023-06-22T06:12:47;21.33;;;15.98;;
42332;SDS011;27984;51.476;5.702;2023-06-22T06:15:13;19.33;;;15.50;;
42332;SDS011;27984;51.476;5.702;2023-06-22T06:17:48;18.50;;;15.13;;
42332;SDS011;27984;51.476;5.702;2023-06-22T06:20:15;20.88;;;14.85;;
42332;SDS011;27984;51.476;5.702;2023-06-22T06:22:41;21.35;;;15.88;;
42332;SDS011;27984;51.476;5.702;2023-06-22T06:25:08;23.40;;;15.63;;
42332;SDS011;27984;51.476;5.702;2023-06-22T06:27:34;20.63;;;15.68;;
42332;SDS011;27984;51.476;5.702;2023-06-22T06:30:00;19.45;;;14.82;;
42332;SDS011;27984;51.476;5.702;2023-06-22T06:32:26;20.70;;;15.38;;
42332;SDS011;27984;51.476;5.702;2023-06-22T06:34:51;20.55;;;15.18;;
42332;SDS011;27984;51.476;5.702;2023-06-22T06:37:17;18.00;;;14.27;;
42332;SDS011;27984;51.476;5.702;2023-06-22T06:39:44;20.60;;;14.98;;
42332;SDS011;27984;51.476;5.702;2023-06-22T06:42:10;18.38;;;15.35;;
42332;SDS011;27984;51.476;5.702;2023-06-22T06:44:36;19.42;;;14.85;;
42332;SDS011;27984;51.476;5.702;2023-06-22T06:47:03;18.13;;;14.75;;
42332;SDS011;27984;51.476;5.702;2023-06-22T06:49:29;20.80;;;14.65;;
42332;SDS011;27984;51.476;5.702;2023-06-22T06:51:55;18.20;;;14.95;;
42332;SDS011;27984;51.476;5.702;2023-06-22T06:54:21;19.15;;;15.13;;
42332;SDS011;27984;51.476;5.702;2023-06-22T06:56:47;22.55;;;16.10;;
42332;SDS011;27984;51.476;5.702;2023-06-22T06:59:16;20.25;;;15.73;;
42332;SDS011;27984;51.476;5.702;2023-06-22T07:01:42;22.25;;;15.98;;
42332;SDS011;27984;51.476;5.702;2023-06-22T07:04:09;23.58;;;16.25;;
42332;SDS011;27984;51.476;5.702;2023-06-22T07:06:35;20.55;;;17.42;;
42332;SDS011;27984;51.476;5.702;2023-06-22T07:09:02;22.52;;;15.65;;
42332;SDS011;27984;51.476;5.702;2023-06-22T07:11:28;21.38;;;16.02;;
42332;SDS011;27984;51.476;5.702;2023-06-22T07:13:54;21.63;;;15.38;;
42332;SDS011;27984;51.476;5.702;2023-06-22T07:16:20;22.02;;;16.08;;
42332;SDS011;27984;51.476;5.702;2023-06-22T07:18:48;19.55;;;15.73;;
42332;SDS011;27984;51.476;5.702;2023-06-22T07:21:14;24.40;;;15.50;;
42332;SDS011;27984;51.476;5.702;2023-06-22T07:23:40;22.23;;;15.52;;
42332;SDS011;27984;51.476;5.702;2023-06-22T07:26:05;20.50;;;15.90;;
42332;SDS011;27984;51.476;5.702;2023-06-22T07:28:33;22.13;;;15.98;;
42332;SDS011;27984;51.476;5.702;2023-06-22T07:31:02;21.38;;;15.90;;
42332;SDS011;27984;51.476;5.702;2023-06-22T07:33:29;21.20;;;15.80;;
42332;SDS011;27984;51.476;5.702;2023-06-22T07:35:55;21.42;;;16.35;;
42332;SDS011;27984;51.476;5.702;2023-06-22T07:38:21;26.83;;;16.48;;
42332;SDS011;27984;51.476;5.702;2023-06-22T07:40:47;18.55;;;15.85;;
42332;SDS011;27984;51.476;5.702;2023-06-22T07:43:13;18.52;;;15.65;;
42332;SDS011;27984;51.476;5.702;2023-06-22T07:45:39;20.38;;;16.58;;
42332;SDS011;27984;51.476;5.702;2023-06-22T07:48:07;20.35;;;16.08;;
42332;SDS011;27984;51.476;5.702;2023-06-22T07:50:33;22.73;;;16.67;;
42332;SDS011;27984;51.476;5.702;2023-06-22T07:52:59;19.48;;;16.58;;
42332;SDS011;27984;51.476;5.702;2023-06-22T07:55:25;18.33;;;16.13;;
42332;SDS011;27984;51.476;5.702;2023-06-22T07:57:51;21.00;;;14.93;;
42332;SDS011;27984;51.476;5.702;2023-06-22T08:00:17;21.23;;;16.10;;
42332;SDS011;27984;51.476;5.702;2023-06-22T08:02:45;20.95;;;14.98;;
42332;SDS011;27984;51.476;5.702;2023-06-22T08:05:13;17.92;;;15.27;;
42332;SDS011;27984;51.476;5.702;2023-06-22T08:07:39;20.70;;;15.52;;
42332;SDS011;27984;51.476;5.702;2023-06-22T08:10:06;19.38;;;15.10;;
42332;SDS011;27984;51.476;5.702;2023-06-22T08:12:32;21.60;;;15.07;;
42332;SDS011;27984;51.476;5.702;2023-06-22T08:14:58;21.05;;;15.20;;
42332;SDS011;27984;51.476;5.702;2023-06-22T08:17:24;19.63;;;15.70;;
42332;SDS011;27984;51.476;5.702;2023-06-22T08:19:50;19.05;;;15.68;;
42332;SDS011;27984;51.476;5.702;2023-06-22T08:22:16;19.60;;;15.55;;
42332;SDS011;27984;51.476;5.702;2023-06-22T08:24:43;19.45;;;15.63;;
42332;SDS011;27984;51.476;5.702;2023-06-22T08:27:10;19.58;;;16.15;;
42332;SDS011;27984;51.476;5.702;2023-06-22T08:29:40;21.17;;;15.73;;
42332;SDS011;27984;51.476;5.702;2023-06-22T08:32:10;20.33;;;16.83;;
42332;SDS011;27984;51.476;5.702;2023-06-22T08:34:36;23.30;;;16.77;;
42332;SDS011;27984;51.476;5.702;2023-06-22T08:37:07;19.73;;;15.85;;
42332;SDS011;27984;51.476;5.702;2023-06-22T08:39:33;20.30;;;16.27;;
42332;SDS011;27984;51.476;5.702;2023-06-22T08:41:59;20.13;;;16.88;;
42332;SDS011;27984;51.476;5.702;2023-06-22T08:44:25;22.65;;;17.33;;
42332;SDS011;27984;51.476;5.702;2023-06-22T08:46:51;23.70;;;17.20;;
42332;SDS011;27984;51.476;5.702;2023-06-22T08:49:17;22.63;;;17.60;;
42332;SDS011;27984;51.476;5.702;2023-06-22T08:51:43;24.90;;;16.73;;
42332;SDS011;27984;51.476;5.702;2023-06-22T08:54:10;21.27;;;16.70;;
42332;SDS011;27984;51.476;5.702;2023-06-22T08:56:36;21.52;;;17.10;;
42332;SDS011;27984;51.476;5.702;2023-06-22T08:59:02;24.00;;;16.77;;
42332;SDS011;27984;51.476;5.702;2023-06-22T09:01:28;18.85;;;15.65;;
42332;SDS011;27984;51.476;5.702;2023-06-22T09:03:54;19.48;;;16.45;;
42332;SDS011;27984;51.476;5.702;2023-06-22T09:06:22;19.55;;;16.17;;
42332;SDS011;27984;51.476;5.702;2023-06-22T09:08:49;21.33;;;16.23;;
42332;SDS011;27984;51.476;5.702;2023-06-22T09:11:15;22.55;;;17.52;;
42332;SDS011;27984;51.476;5.702;2023-06-22T09:13:41;21.35;;;17.33;;
42332;SDS011;27984;51.476;5.702;2023-06-22T09:16:13;20.33;;;16.85;;
42332;SDS011;27984;51.476;5.702;2023-06-22T09:18:39;23.60;;;16.38;;
42332;SDS011;27984;51.476;5.702;2023-06-22T09:21:08;20.05;;;17.20;;
42332;SDS011;27984;51.476;5.702;2023-06-22T09:23:34;21.77;;;16.98;;
42332;SDS011;27984;51.476;5.702;2023-06-22T09:26:00;20.08;;;16.75;;
42332;SDS011;27984;51.476;5.702;2023-06-22T09:28:26;21.73;;;16.23;;
42332;SDS011;27984;51.476;5.702;2023-06-22T09:30:52;20.75;;;15.98;;
42332;SDS011;27984;51.476;5.702;2023-06-22T09:33:23;20.38;;;16.85;;
42332;SDS011;27984;51.476;5.702;2023-06-22T09:35:49;18.40;;;15.65;;
42332;SDS011;27984;51.476;5.702;2023-06-22T09:38:16;18.00;;;16.02;;
42332;SDS011;27984;51.476;5.702;2023-06-22T09:40:42;20.88;;;16.17;;
42332;SDS011;27984;51.476;5.702;2023-06-22T09:43:08;21.33;;;16.17;;
42332;SDS011;27984;51.476;5.702;2023-06-22T09:45:34;19.52;;;15.90;;
42332;SDS011;27984;51.476;5.702;2023-06-22T09:48:00;21.98;;;15.63;;
42332;SDS011;27984;51.476;5.702;2023-06-22T09:50:26;17.10;;;14.63;;
42332;SDS011;27984;51.476;5.702;2023-06-22T09:52:52;18.83;;;14.98;;
42332;SDS011;27984;51.476;5.702;2023-06-22T09:55:20;18.08;;;16.10;;
42332;SDS011;27984;51.476;5.702;2023-06-22T09:57:46;18.77;;;14.52;;
42332;SDS011;27984;51.476;5.702;2023-06-22T10:00:12;19.15;;;15.20;;
42332;SDS011;27984;51.476;5.702;2023-06-22T10:02:40;17.15;;;15.05;;
42332;SDS011;27984;51.476;5.702;2023-06-22T10:05:06;18.23;;;15.02;;
42332;SDS011;27984;51.476;5.702;2023-06-22T10:07:33;17.27;;;14.65;;
42332;SDS011;27984;51.476;5.702;2023-06-22T10:09:59;16.38;;;14.00;;
42332;SDS011;27984;51.476;5.702;2023-06-22T10:12:26;16.55;;;13.80;;
42332;SDS011;27984;51.476;5.702;2023-06-22T10:14:53;16.20;;;14.50;;
42332;SDS011;27984;51.476;5.702;2023-06-22T10:17:18;16.77;;;14.15;;
42332;SDS011;27984;51.476;5.702;2023-06-22T10:19:44;20.45;;;14.00;;
42332;SDS011;27984;51.476;5.702;2023-06-22T10:22:10;19.48;;;13.45;;
42332;SDS011;27984;51.476;5.702;2023-06-22T10:24:36;15.63;;;13.93;;
42332;SDS011;27984;51.476;5.702;2023-06-22T10:27:09;16.45;;;12.95;;
42332;SDS011;27984;51.476;5.702;2023-06-22T10:29:35;16.25;;;13.10;;
42332;SDS011;27984;51.476;5.702;2023-06-22T10:32:01;15.93;;;12.63;;
42332;SDS011;27984;51.476;5.702;2023-06-22T10:34:27;17.20;;;13.32;;
42332;SDS011;27984;51.476;5.702;2023-06-22T10:36:53;15.20;;;13.38;;
42332;SDS011;27984;51.476;5.702;2023-06-22T10:39:19;19.30;;;14.38;;
42332;SDS011;27984;51.476;5.702;2023-06-22T10:41:45;18.48;;;14.35;;
42332;SDS011;27984;51.476;5.702;2023-06-22T10:44:11;21.73;;;14.77;;
42332;SDS011;27984;51.476;5.702;2023-06-22T10:46:38;20.02;;;16.00;;
42332;SDS011;27984;51.476;5.702;2023-06-22T10:49:04;22.35;;;16.25;;
42332;SDS011;27984;51.476;5.702;2023-06-22T10:51:30;21.00;;;18.27;;
42332;SDS011;27984;51.476;5.702;2023-06-22T10:53:57;22.50;;;18.92;;
42332;SDS011;27984;51.476;5.702;2023-06-22T10:56:23;25.52;;;20.40;;
42332;SDS011;27984;51.476;5.702;2023-06-22T10:58:49;24.92;;;20.95;;
42332;SDS011;27984;51.476;5.702;2023-06-22T11:01:15;24.38;;;21.70;;
42332;SDS011;27984;51.476;5.702;2023-06-22T11:03:41;30.50;;;24.02;;
42332;SDS011;27984;51.476;5.702;2023-06-22T11:06:07;37.20;;;26.98;;
42332;SDS011;27984;51.476;5.702;2023-06-22T11:08:33;32.50;;;26.40;;
42332;SDS011;27984;51.476;5.702;2023-06-22T11:11:00;35.50;;;26.05;;
42332;SDS011;27984;51.476;5.702;2023-06-22T11:13:26;34.63;;;27.30;;
42332;SDS011;27984;51.476;5.702;2023-06-22T11:15:52;37.65;;;27.45;;
42332;SDS011;27984;51.476;5.702;2023-06-22T11:18:18;48.80;;;31.33;;
42332;SDS011;27984;51.476;5.702;2023-06-22T11:20:44;43.17;;;31.27;;
42332;SDS011;27984;51.476;5.702;2023-06-22T11:23:10;41.20;;;30.95;;
42332;SDS011;27984;51.476;5.702;2023-06-22T11:25:37;44.25;;;33.33;;
42332;SDS011;27984;51.476;5.702;2023-06-22T11:28:03;42.80;;;32.53;;
42332;SDS011;27984;51.476;5.702;2023-06-22T11:30:29;46.08;;;33.90;;
42332;SDS011;27984;51.476;5.702;2023-06-22T11:32:56;51.60;;;35.63;;
42332;SDS011;27984;51.476;5.702;2023-06-22T11:35:23;52.70;;;35.70;;
42332;SDS011;27984;51.476;5.702;2023-06-22T11:37:49;49.17;;;36.13;;
42332;SDS011;27984;51.476;5.702;2023-06-22T11:40:15;48.33;;;36.13;;
42332;SDS011;27984;51.476;5.702;2023-06-22T11:42:42;49.95;;;37.55;;
42332;SDS011;27984;51.476;5.702;2023-06-22T11:45:08;52.85;;;40.75;;
42332;SDS011;27984;51.476;5.702;2023-06-22T11:47:34;53.42;;;40.25;;
42332;SDS011;27984;51.476;5.702;2023-06-22T11:50:01;45.92;;;34.88;;
42332;SDS011;27984;51.476;5.702;2023-06-22T11:52:27;45.10;;;35.13;;
42332;SDS011;27984;51.476;5.702;2023-06-22T11:54:53;46.13;;;35.22;;
42332;SDS011;27984;51.476;5.702;2023-06-22T11:57:19;48.55;;;36.13;;
42332;SDS011;27984;51.476;5.702;2023-06-22T11:59:44;51.15;;;36.25;;
42332;SDS011;27984;51.476;5.702;2023-06-22T12:02:10;45.20;;;35.65;;
42332;SDS011;27984;51.476;5.702;2023-06-22T12:04:36;46.53;;;35.80;;
42332;SDS011;27984;51.476;5.702;2023-06-22T12:07:02;42.17;;;33.40;;
42332;SDS011;27984;51.476;5.702;2023-06-22T12:09:28;47.55;;;36.60;;
42332;SDS011;27984;51.476;5.702;2023-06-22T12:11:54;45.45;;;35.70;;
42332;SDS011;27984;51.476;5.702;2023-06-22T12:14:22;46.60;;;36.88;;
42332;SDS011;27984;51.476;5.702;2023-06-22T12:16:48;43.95;;;35.65;;
42332;SDS011;27984;51.476;5.702;2023-06-22T12:19:14;41.85;;;32.50;;
42332;SDS011;27984;51.476;5.702;2023-06-22T12:21:40;39.58;;;31.98;;
42332;SDS011;27984;51.476;5.702;2023-06-22T12:24:06;43.17;;;31.88;;
42332;SDS011;27984;51.476;5.702;2023-06-22T12:26:32;37.45;;;30.58;;
42332;SDS011;27984;51.476;5.702;2023-06-22T12:28:58;39.03;;;31.60;;
42332;SDS011;27984;51.476;5.702;2023-06-22T12:31:24;42.70;;;30.88;;
42332;SDS011;27984;51.476;5.702;2023-06-22T12:33:49;42.25;;;31.10;;
42332;SDS011;27984;51.476;5.702;2023-06-22T12:36:15;33.00;;;28.38;;
42332;SDS011;27984;51.476;5.702;2023-06-22T12:38:41;34.28;;;28.33;;
42332;SDS011;27984;51.476;5.702;2023-06-22T12:41:07;35.03;;;28.48;;
42332;SDS011;27984;51.476;5.702;2023-06-22T12:43:33;31.67;;;27.85;;
42332;SDS011;27984;51.476;5.702;2023-06-22T12:45:59;32.47;;;27.15;;
42332;SDS011;27984;51.476;5.702;2023-06-22T12:48:26;35.72;;;28.80;;
42332;SDS011;27984;51.476;5.702;2023-06-22T12:50:52;35.33;;;28.85;;
42332;SDS011;27984;51.476;5.702;2023-06-22T12:53:18;33.92;;;27.80;;
42332;SDS011;27984;51.476;5.702;2023-06-22T12:55:44;32.65;;;27.52;;
42332;SDS011;27984;51.476;5.702;2023-06-22T12:58:10;33.55;;;29.27;;
42332;SDS011;27984;51.476;5.702;2023-06-22T13:00:36;37.10;;;30.10;;
42332;SDS011;27984;51.476;5.702;2023-06-22T13:03:02;38.08;;;31.17;;
42332;SDS011;27984;51.476;5.702;2023-06-22T13:05:28;33.00;;;29.35;;
42332;SDS011;27984;51.476;5.702;2023-06-22T13:07:55;39.22;;;29.48;;
42332;SDS011;27984;51.476;5.702;2023-06-22T13:10:21;39.20;;;29.73;;
42332;SDS011;27984;51.476;5.702;2023-06-22T13:12:47;35.28;;;29.60;;
42332;SDS011;27984;51.476;5.702;2023-06-22T13:15:13;35.08;;;29.80;;
42332;SDS011;27984;51.476;5.702;2023-06-22T13:17:39;37.20;;;30.27;;
42332;SDS011;27984;51.476;5.702;2023-06-22T13:20:05;37.95;;;29.65;;
42332;SDS011;27984;51.476;5.702;2023-06-22T13:22:32;36.33;;;30.90;;
42332;SDS011;27984;51.476;5.702;2023-06-22T13:25:04;41.20;;;32.83;;
42332;SDS011;27984;51.476;5.702;2023-06-22T13:27:30;36.75;;;31.95;;
42332;SDS011;27984;51.476;5.702;2023-06-22T13:29:56;39.15;;;32.25;;
42332;SDS011;27984;51.476;5.702;2023-06-22T13:32:22;43.50;;;33.50;;
42332;SDS011;27984;51.476;5.702;2023-06-22T13:34:48;40.03;;;32.90;;
42332;SDS011;27984;51.476;5.702;2023-06-22T13:37:14;42.00;;;33.97;;
42332;SDS011;27984;51.476;5.702;2023-06-22T13:39:40;37.25;;;32.90;;
42332;SDS011;27984;51.476;5.702;2023-06-22T13:42:06;38.97;;;32.53;;
42332;SDS011;27984;51.476;5.702;2023-06-22T13:44:32;38.65;;;31.83;;
42332;SDS011;27984;51.476;5.702;2023-06-22T13:46:58;39.78;;;33.13;;
42332;SDS011;27984;51.476;5.702;2023-06-22T13:49:25;38.45;;;32.67;;
42332;SDS011;27984;51.476;5.702;2023-06-22T13:51:51;38.30;;;31.20;;
42332;SDS011;27984;51.476;5.702;2023-06-22T13:54:17;39.25;;;33.53;;
42332;SDS011;27984;51.476;5.702;2023-06-22T13:56:43;34.30;;;30.42;;
42332;SDS011;27984;51.476;5.702;2023-06-22T13:59:09;38.55;;;32.80;;
42332;SDS011;27984;51.476;5.702;2023-06-22T14:01:35;41.28;;;34.00;;
42332;SDS011;27984;51.476;5.702;2023-06-22T14:04:03;40.03;;;33.97;;
42332;SDS011;27984;51.476;5.702;2023-06-22T14:06:29;41.67;;;35.22;;
42332;SDS011;27984;51.476;5.702;2023-06-22T14:08:55;44.63;;;36.00;;
42332;SDS011;27984;51.476;5.702;2023-06-22T14:11:21;41.30;;;35.95;;
42332;SDS011;27984;51.476;5.702;2023-06-22T14:13:47;39.50;;;32.50;;
42332;SDS011;27984;51.476;5.702;2023-06-22T14:16:13;39.83;;;33.55;;
42332;SDS011;27984;51.476;5.702;2023-06-22T14:18:39;40.90;;;32.35;;
42332;SDS011;27984;51.476;5.702;2023-06-22T14:21:05;42.30;;;35.83;;
42332;SDS011;27984;51.476;5.702;2023-06-22T14:23:31;39.75;;;33.22;;
42332;SDS011;27984;51.476;5.702;2023-06-22T14:25:57;39.33;;;34.20;;
42332;SDS011;27984;51.476;5.702;2023-06-22T14:28:23;42.25;;;35.28;;